sensor_id;sensor_type;location;lat;lon;timestamp;pressure;altitude;pressure_sealevel;temperature;humidity
43818;BME280;29868;47.360;18.984;2023-01-16T21:13:42;98160.59;;;5.14;100.00
43818;BME280;29868;47.360;18.984;2023-01-16T21:16:26;98163.16;;;5.09;100.00
43818;BME280;29868;47.360;18.984;2023-01-16T21:19:10;98164.84;;;5.07;100.00
43818;BME280;29868;47.360;18.984;2023-01-16T21:21:54;98169.13;;;4.99;100.00
43818;BME280;29868;47.360;18.984;2023-01-16T21:24:19;98171.69;;;4.99;100.00
43818;BME280;29868;47.360;18.984;2023-01-16T21:26:45;98180.25;;;4.91;100.00
43818;BME280;29868;47.360;18.984;2023-01-16T21:29:11;98179.41;;;4.95;100.00
43818;BME280;29868;47.360;18.984;2023-01-16T21:31:36;98178.56;;;4.90;100.00
43818;BME280;29868;47.360;18.984;2023-01-16T21:34:04;98181.06;;;4.76;100.00
43818;BME280;29868;47.360;18.984;2023-01-16T21:36:30;98182.72;;;4.60;100.00
43818;BME280;29868;47.360;18.984;2023-01-16T21:38:56;98188.66;;;4.48;100.00
43818;BME280;29868;47.360;18.984;2023-01-16T21:41:22;98195.41;;;4.31;100.00
43818;BME280;29868;47.360;18.984;2023-01-16T21:43:47;98195.41;;;4.29;100.00
43818;BME280;29868;47.360;18.984;2023-01-16T21:46:31;98188.53;;;4.27;100.00
43818;BME280;29868;47.360;18.984;2023-01-16T21:48:59;98191.13;;;4.31;100.00
43818;BME280;29868;47.360;18.984;2023-01-16T21:51:29;98193.69;;;4.27;100.00
43818;BME280;29868;47.360;18.984;2023-01-16T21:53:56;98194.50;;;4.24;100.00
43818;BME280;29868;47.360;18.984;2023-01-16T21:56:22;98191.97;;;4.26;100.00
43818;BME280;29868;47.360;18.984;2023-01-16T21:58:47;98194.56;;;4.29;100.00
43818;BME280;29868;47.360;18.984;2023-01-16T22:01:13;98188.59;;;4.33;100.00
43818;BME280;29868;47.360;18.984;2023-01-16T22:03:39;98193.72;;;4.33;100.00
43818;BME280;29868;47.360;18.984;2023-01-16T22:06:06;98190.22;;;4.20;100.00
43818;BME280;29868;47.360;18.984;2023-01-16T22:08:37;98180.72;;;4.08;100.00
43818;BME280;29868;47.360;18.984;2023-01-16T22:11:11;98171.28;;;4.03;100.00
43818;BME280;29868;47.360;18.984;2023-01-16T22:13:56;98173.03;;;4.11;100.00
43818;BME280;29868;47.360;18.984;2023-01-16T22:16:40;98163.47;;;3.89;100.00
43818;BME280;29868;47.360;18.984;2023-01-16T22:19:24;98163.47;;;3.89;100.00
43818;BME280;29868;47.360;18.984;2023-01-16T22:21:53;98155.81;;;3.95;100.00
43818;BME280;29868;47.360;18.984;2023-01-16T22:24:19;98160.94;;;3.95;100.00
43818;BME280;29868;47.360;18.984;2023-01-16T22:26:44;98159.22;;;3.97;100.00
43818;BME280;29868;47.360;18.984;2023-01-16T22:29:10;98156.56;;;3.82;100.00
43818;BME280;29868;47.360;18.984;2023-01-16T22:31:35;98152.25;;;3.78;100.00
43818;BME280;29868;47.360;18.984;2023-01-16T22:34:00;98170.28;;;3.84;100.00
43818;BME280;29868;47.360;18.984;2023-01-16T22:36:27;98176.28;;;3.86;100.00
43818;BME280;29868;47.360;18.984;2023-01-16T22:38:52;98179.81;;;3.99;100.00
43818;BME280;29868;47.360;18.984;2023-01-16T22:41:19;98176.38;;;3.98;100.00
43818;BME280;29868;47.360;18.984;2023-01-16T22:43:46;98166.97;;;4.00;100.00
43818;BME280;29868;47.360;18.984;2023-01-16T22:46:30;98160.13;;;3.99;100.00
43818;BME280;29868;47.360;18.984;2023-01-16T22:49:00;98156.78;;;4.09;100.00
43818;BME280;29868;47.360;18.984;2023-01-16T22:51:28;98150.75;;;4.07;100.00
43818;BME280;29868;47.360;18.984;2023-01-16T22:53:54;98151.59;;;4.06;100.00
43818;BME280;29868;47.360;18.984;2023-01-16T22:56:20;98145.56;;;4.01;100.00
43818;BME280;29868;47.360;18.984;2023-01-16T22:58:46;98143.88;;;4.05;100.00
